Terminal Aerodrome Forecast
Issued by NWS

Home | Current Version | Previous Version | Graphics & Text | Print | Product List | Glossary On
Versions: 1 2 3 4 5 6 7 8 9 10 11 12 13 14
000
FTUS43 KOAX 211739
TAFCDR
TAF
KCDR 211739Z 2118/2218 18006KT P6SM SKC
     FM212100 16010KT P6SM FEW060
     FM220200 16008KT P6SM FEW060 BKN150
     FM221200 18006KT P6SM BKN060 OVC100
     FM221600 16008KT P6SM BKN025 OVC050=

USA.gov is the U.S. government's official web portal to all federal, state and local government web resources and services.